sensor_id;sensor_type;location;lat;lon;timestamp;P1;durP1;ratioP1;P2;durP2;ratioP2
76962;SDS011;65902;51.452;7.198;2023-06-10T00:00:26;7.32;;;6.63;;
76962;SDS011;65902;51.452;7.198;2023-06-10T00:01:27;11.25;;;8.10;;
76962;SDS011;65902;51.452;7.198;2023-06-10T00:02:28;8.00;;;7.13;;
76962;SDS011;65902;51.452;7.198;2023-06-10T00:03:29;14.93;;;7.95;;
76962;SDS011;65902;51.452;7.198;2023-06-10T00:04:29;10.90;;;6.93;;
76962;SDS011;65902;51.452;7.198;2023-06-10T00:05:30;8.60;;;6.38;;
76962;SDS011;65902;51.452;7.198;2023-06-10T00:06:31;7.78;;;6.97;;
76962;SDS011;65902;51.452;7.198;2023-06-10T00:07:38;8.30;;;7.25;;
76962;SDS011;65902;51.452;7.198;2023-06-10T00:08:39;9.23;;;7.65;;
76962;SDS011;65902;51.452;7.198;2023-06-10T00:09:40;9.00;;;7.60;;
76962;SDS011;65902;51.452;7.198;2023-06-10T00:10:41;9.05;;;7.95;;
76962;SDS011;65902;51.452;7.198;2023-06-10T00:11:41;9.23;;;7.40;;
76962;SDS011;65902;51.452;7.198;2023-06-10T00:12:42;9.52;;;7.55;;
76962;SDS011;65902;51.452;7.198;2023-06-10T00:13:43;9.73;;;7.40;;
76962;SDS011;65902;51.452;7.198;2023-06-10T00:14:44;8.63;;;7.72;;
76962;SDS011;65902;51.452;7.198;2023-06-10T00:15:44;8.15;;;6.95;;
76962;SDS011;65902;51.452;7.198;2023-06-10T00:16:45;8.52;;;6.95;;
76962;SDS011;65902;51.452;7.198;2023-06-10T00:17:46;8.40;;;7.50;;
76962;SDS011;65902;51.452;7.198;2023-06-10T00:18:47;8.77;;;7.80;;
76962;SDS011;65902;51.452;7.198;2023-06-10T00:19:49;8.23;;;7.47;;
76962;SDS011;65902;51.452;7.198;2023-06-10T00:20:50;8.95;;;8.05;;
76962;SDS011;65902;51.452;7.198;2023-06-10T00:21:53;8.88;;;7.30;;
76962;SDS011;65902;51.452;7.198;2023-06-10T00:22:53;9.40;;;7.93;;
76962;SDS011;65902;51.452;7.198;2023-06-10T00:23:54;8.93;;;7.35;;
76962;SDS011;65902;51.452;7.198;2023-06-10T00:24:55;7.95;;;7.15;;
76962;SDS011;65902;51.452;7.198;2023-06-10T00:25:59;10.13;;;7.85;;
76962;SDS011;65902;51.452;7.198;2023-06-10T00:27:00;7.80;;;7.00;;
76962;SDS011;65902;51.452;7.198;2023-06-10T00:28:01;9.05;;;8.02;;
76962;SDS011;65902;51.452;7.198;2023-06-10T00:29:02;10.73;;;8.52;;
76962;SDS011;65902;51.452;7.198;2023-06-10T00:30:03;11.77;;;7.80;;
76962;SDS011;65902;51.452;7.198;2023-06-10T00:31:06;9.77;;;7.80;;
76962;SDS011;65902;51.452;7.198;2023-06-10T00:32:07;10.60;;;7.65;;
76962;SDS011;65902;51.452;7.198;2023-06-10T00:33:07;11.25;;;10.02;;
76962;SDS011;65902;51.452;7.198;2023-06-10T00:34:10;9.18;;;7.88;;
76962;SDS011;65902;51.452;7.198;2023-06-10T00:35:11;9.00;;;7.97;;
76962;SDS011;65902;51.452;7.198;2023-06-10T00:36:11;12.48;;;8.65;;
76962;SDS011;65902;51.452;7.198;2023-06-10T00:37:12;9.07;;;8.15;;
76962;SDS011;65902;51.452;7.198;2023-06-10T00:38:14;10.18;;;8.18;;
76962;SDS011;65902;51.452;7.198;2023-06-10T00:39:18;9.48;;;8.25;;
76962;SDS011;65902;51.452;7.198;2023-06-10T00:40:19;9.00;;;8.10;;
76962;SDS011;65902;51.452;7.198;2023-06-10T00:41:19;11.05;;;7.82;;
76962;SDS011;65902;51.452;7.198;2023-06-10T00:42:20;9.05;;;8.15;;
76962;SDS011;65902;51.452;7.198;2023-06-10T00:43:23;9.98;;;8.13;;
76962;SDS011;65902;51.452;7.198;2023-06-10T00:44:24;11.88;;;7.80;;
76962;SDS011;65902;51.452;7.198;2023-06-10T00:45:24;9.20;;;7.70;;
76962;SDS011;65902;51.452;7.198;2023-06-10T00:46:25;9.38;;;8.32;;
76962;SDS011;65902;51.452;7.198;2023-06-10T00:47:27;10.52;;;8.65;;
76962;SDS011;65902;51.452;7.198;2023-06-10T00:48:27;9.90;;;7.93;;
76962;SDS011;65902;51.452;7.198;2023-06-10T00:49:28;10.68;;;8.10;;
76962;SDS011;65902;51.452;7.198;2023-06-10T00:50:29;9.20;;;8.07;;
76962;SDS011;65902;51.452;7.198;2023-06-10T00:51:31;10.52;;;7.85;;
76962;SDS011;65902;51.452;7.198;2023-06-10T00:52:31;9.80;;;8.35;;
76962;SDS011;65902;51.452;7.198;2023-06-10T00:53:32;10.07;;;8.48;;
76962;SDS011;65902;51.452;7.198;2023-06-10T00:54:32;9.80;;;8.80;;
76962;SDS011;65902;51.452;7.198;2023-06-10T00:55:34;8.70;;;7.80;;
76962;SDS011;65902;51.452;7.198;2023-06-10T00:56:34;9.57;;;8.57;;
76962;SDS011;65902;51.452;7.198;2023-06-10T00:57:35;10.45;;;9.30;;
76962;SDS011;65902;51.452;7.198;2023-06-10T00:58:36;12.45;;;8.68;;
76962;SDS011;65902;51.452;7.198;2023-06-10T00:59:36;10.63;;;8.82;;
76962;SDS011;65902;51.452;7.198;2023-06-10T01:00:37;10.07;;;7.93;;
76962;SDS011;65902;51.452;7.198;2023-06-10T01:01:37;10.13;;;8.48;;
76962;SDS011;65902;51.452;7.198;2023-06-10T01:02:39;10.27;;;9.27;;
76962;SDS011;65902;51.452;7.198;2023-06-10T01:03:40;8.88;;;7.85;;
76962;SDS011;65902;51.452;7.198;2023-06-10T01:04:41;10.18;;;8.95;;
76962;SDS011;65902;51.452;7.198;2023-06-10T01:05:41;9.18;;;8.20;;
76962;SDS011;65902;51.452;7.198;2023-06-10T01:08:15;10.85;;;9.75;;
76962;SDS011;65902;51.452;7.198;2023-06-10T01:10:28;9.93;;;8.93;;
76962;SDS011;65902;51.452;7.198;2023-06-10T01:12:19;10.07;;;8.88;;
76962;SDS011;65902;51.452;7.198;2023-06-10T01:13:54;10.55;;;9.25;;
76962;SDS011;65902;51.452;7.198;2023-06-10T01:14:56;11.35;;;8.88;;
76962;SDS011;65902;51.452;7.198;2023-06-10T01:15:57;9.50;;;7.97;;
76962;SDS011;65902;51.452;7.198;2023-06-10T01:16:57;11.00;;;9.60;;
76962;SDS011;65902;51.452;7.198;2023-06-10T01:17:59;9.77;;;8.77;;
76962;SDS011;65902;51.452;7.198;2023-06-10T01:19:00;11.50;;;8.95;;
76962;SDS011;65902;51.452;7.198;2023-06-10T01:20:01;10.30;;;9.23;;
76962;SDS011;65902;51.452;7.198;2023-06-10T01:21:04;10.32;;;9.20;;
76962;SDS011;65902;51.452;7.198;2023-06-10T01:22:05;12.50;;;9.27;;
76962;SDS011;65902;51.452;7.198;2023-06-10T01:23:06;9.38;;;8.45;;
76962;SDS011;65902;51.452;7.198;2023-06-10T01:24:07;9.50;;;8.50;;
76962;SDS011;65902;51.452;7.198;2023-06-10T01:25:08;12.75;;;8.95;;
76962;SDS011;65902;51.452;7.198;2023-06-10T01:26:09;9.68;;;8.68;;
76962;SDS011;65902;51.452;7.198;2023-06-10T01:27:12;11.68;;;8.15;;
76962;SDS011;65902;51.452;7.198;2023-06-10T01:29:31;10.38;;;8.98;;
76962;SDS011;65902;51.452;7.198;2023-06-10T01:30:39;10.20;;;8.90;;
76962;SDS011;65902;51.452;7.198;2023-06-10T01:31:43;10.20;;;8.85;;
76962;SDS011;65902;51.452;7.198;2023-06-10T01:32:48;10.25;;;9.25;;
76962;SDS011;65902;51.452;7.198;2023-06-10T01:33:51;9.93;;;8.93;;
76962;SDS011;65902;51.452;7.198;2023-06-10T01:34:52;10.23;;;8.40;;
76962;SDS011;65902;51.452;7.198;2023-06-10T01:35:53;12.20;;;8.68;;
76962;SDS011;65902;51.452;7.198;2023-06-10T01:36:55;9.73;;;8.45;;
76962;SDS011;65902;51.452;7.198;2023-06-10T01:37:57;9.93;;;8.93;;
76962;SDS011;65902;51.452;7.198;2023-06-10T01:38:58;9.82;;;8.82;;
76962;SDS011;65902;51.452;7.198;2023-06-10T01:39:59;11.75;;;9.30;;
76962;SDS011;65902;51.452;7.198;2023-06-10T01:41:00;10.80;;;9.70;;
76962;SDS011;65902;51.452;7.198;2023-06-10T01:42:00;12.23;;;9.95;;
76962;SDS011;65902;51.452;7.198;2023-06-10T01:43:02;10.55;;;8.88;;
76962;SDS011;65902;51.452;7.198;2023-06-10T01:44:03;12.27;;;9.32;;
76962;SDS011;65902;51.452;7.198;2023-06-10T01:45:05;14.85;;;9.63;;
76962;SDS011;65902;51.452;7.198;2023-06-10T01:46:06;11.20;;;9.13;;
76962;SDS011;65902;51.452;7.198;2023-06-10T01:47:07;10.88;;;9.65;;
76962;SDS011;65902;51.452;7.198;2023-06-10T01:48:07;10.25;;;9.23;;
76962;SDS011;65902;51.452;7.198;2023-06-10T01:49:08;15.02;;;9.73;;
76962;SDS011;65902;51.452;7.198;2023-06-10T01:50:08;11.00;;;8.98;;
76962;SDS011;65902;51.452;7.198;2023-06-10T01:51:09;11.27;;;9.13;;
76962;SDS011;65902;51.452;7.198;2023-06-10T01:52:10;10.50;;;9.40;;
76962;SDS011;65902;51.452;7.198;2023-06-10T01:53:10;9.68;;;8.60;;
76962;SDS011;65902;51.452;7.198;2023-06-10T01:54:11;10.90;;;9.10;;
76962;SDS011;65902;51.452;7.198;2023-06-10T01:55:12;11.05;;;9.05;;
76962;SDS011;65902;51.452;7.198;2023-06-10T01:56:13;13.02;;;9.60;;
76962;SDS011;65902;51.452;7.198;2023-06-10T01:57:18;10.30;;;9.15;;
76962;SDS011;65902;51.452;7.198;2023-06-10T01:58:19;11.15;;;9.35;;
76962;SDS011;65902;51.452;7.198;2023-06-10T01:59:19;11.80;;;9.80;;
76962;SDS011;65902;51.452;7.198;2023-06-10T02:00:20;12.30;;;9.85;;
76962;SDS011;65902;51.452;7.198;2023-06-10T02:01:21;11.93;;;9.77;;
76962;SDS011;65902;51.452;7.198;2023-06-10T02:02:21;11.98;;;9.48;;
76962;SDS011;65902;51.452;7.198;2023-06-10T02:03:22;10.77;;;9.68;;
76962;SDS011;65902;51.452;7.198;2023-06-10T02:04:23;11.45;;;10.18;;
76962;SDS011;65902;51.452;7.198;2023-06-10T02:05:23;11.80;;;10.32;;
76962;SDS011;65902;51.452;7.198;2023-06-10T02:06:23;10.55;;;9.45;;
76962;SDS011;65902;51.452;7.198;2023-06-10T02:07:25;12.98;;;10.27;;
76962;SDS011;65902;51.452;7.198;2023-06-10T02:08:26;11.10;;;9.55;;
76962;SDS011;65902;51.452;7.198;2023-06-10T02:09:28;10.77;;;9.13;;
76962;SDS011;65902;51.452;7.198;2023-06-10T02:10:28;10.32;;;8.95;;
76962;SDS011;65902;51.452;7.198;2023-06-10T02:11:29;10.52;;;9.13;;
76962;SDS011;65902;51.452;7.198;2023-06-10T02:12:29;11.70;;;9.38;;
76962;SDS011;65902;51.452;7.198;2023-06-10T02:13:29;11.32;;;10.13;;
76962;SDS011;65902;51.452;7.198;2023-06-10T02:14:31;11.75;;;8.77;;
76962;SDS011;65902;51.452;7.198;2023-06-10T02:15:32;11.73;;;10.15;;
76962;SDS011;65902;51.452;7.198;2023-06-10T02:16:33;10.32;;;9.23;;
76962;SDS011;65902;51.452;7.198;2023-06-10T02:17:33;11.32;;;8.82;;
76962;SDS011;65902;51.452;7.198;2023-06-10T02:18:34;12.20;;;9.93;;
76962;SDS011;65902;51.452;7.198;2023-06-10T02:19:34;12.20;;;10.55;;
76962;SDS011;65902;51.452;7.198;2023-06-10T02:20:36;12.07;;;9.25;;
76962;SDS011;65902;51.452;7.198;2023-06-10T02:21:37;11.65;;;9.55;;
76962;SDS011;65902;51.452;7.198;2023-06-10T02:22:38;12.43;;;10.40;;
76962;SDS011;65902;51.452;7.198;2023-06-10T02:23:39;12.93;;;9.75;;
76962;SDS011;65902;51.452;7.198;2023-06-10T02:24:40;11.52;;;9.73;;
76962;SDS011;65902;51.452;7.198;2023-06-10T02:25:41;11.48;;;9.32;;
76962;SDS011;65902;51.452;7.198;2023-06-10T02:26:41;12.95;;;9.88;;
76962;SDS011;65902;51.452;7.198;2023-06-10T02:27:42;12.60;;;9.93;;
76962;SDS011;65902;51.452;7.198;2023-06-10T02:28:42;12.85;;;9.07;;
76962;SDS011;65902;51.452;7.198;2023-06-10T02:29:43;11.52;;;10.32;;
76962;SDS011;65902;51.452;7.198;2023-06-10T02:30:44;12.13;;;9.82;;
76962;SDS011;65902;51.452;7.198;2023-06-10T02:31:45;11.80;;;10.07;;
76962;SDS011;65902;51.452;7.198;2023-06-10T02:32:46;12.05;;;10.60;;
76962;SDS011;65902;51.452;7.198;2023-06-10T02:33:48;12.38;;;10.68;;
76962;SDS011;65902;51.452;7.198;2023-06-10T02:34:49;10.82;;;9.68;;
76962;SDS011;65902;51.452;7.198;2023-06-10T02:35:50;13.35;;;11.65;;
76962;SDS011;65902;51.452;7.198;2023-06-10T02:36:53;11.65;;;10.23;;
76962;SDS011;65902;51.452;7.198;2023-06-10T02:37:54;13.13;;;10.85;;
76962;SDS011;65902;51.452;7.198;2023-06-10T02:38:55;11.73;;;10.00;;
76962;SDS011;65902;51.452;7.198;2023-06-10T02:39:55;13.10;;;10.25;;
76962;SDS011;65902;51.452;7.198;2023-06-10T02:40:55;12.70;;;9.48;;
76962;SDS011;65902;51.452;7.198;2023-06-10T02:41:56;12.30;;;10.35;;
76962;SDS011;65902;51.452;7.198;2023-06-10T02:42:56;13.40;;;10.18;;
76962;SDS011;65902;51.452;7.198;2023-06-10T02:43:58;11.90;;;10.05;;
76962;SDS011;65902;51.452;7.198;2023-06-10T02:44:59;12.02;;;10.43;;
76962;SDS011;65902;51.452;7.198;2023-06-10T02:46:01;11.70;;;10.00;;
76962;SDS011;65902;51.452;7.198;2023-06-10T02:47:02;15.07;;;10.85;;
76962;SDS011;65902;51.452;7.198;2023-06-10T02:48:02;11.38;;;9.77;;
76962;SDS011;65902;51.452;7.198;2023-06-10T02:49:03;12.75;;;11.38;;
76962;SDS011;65902;51.452;7.198;2023-06-10T02:50:03;13.00;;;11.05;;
76962;SDS011;65902;51.452;7.198;2023-06-10T02:51:04;13.38;;;10.73;;
76962;SDS011;65902;51.452;7.198;2023-06-10T02:52:04;12.77;;;11.18;;
76962;SDS011;65902;51.452;7.198;2023-06-10T02:53:07;14.73;;;11.77;;
76962;SDS011;65902;51.452;7.198;2023-06-10T02:54:08;13.05;;;11.43;;
76962;SDS011;65902;51.452;7.198;2023-06-10T02:55:08;12.20;;;10.95;;
76962;SDS011;65902;51.452;7.198;2023-06-10T02:56:08;12.30;;;10.93;;
76962;SDS011;65902;51.452;7.198;2023-06-10T02:57:09;11.20;;;10.05;;
76962;SDS011;65902;51.452;7.198;2023-06-10T02:58:11;12.93;;;10.63;;
76962;SDS011;65902;51.452;7.198;2023-06-10T02:59:11;13.30;;;11.90;;
76962;SDS011;65902;51.452;7.198;2023-06-10T03:00:11;13.05;;;10.65;;
76962;SDS011;65902;51.452;7.198;2023-06-10T03:01:14;15.55;;;10.95;;
76962;SDS011;65902;51.452;7.198;2023-06-10T03:02:14;12.50;;;11.00;;
76962;SDS011;65902;51.452;7.198;2023-06-10T03:03:16;13.23;;;10.70;;
76962;SDS011;65902;51.452;7.198;2023-06-10T03:04:17;12.45;;;10.75;;
76962;SDS011;65902;51.452;7.198;2023-06-10T03:05:18;16.08;;;12.48;;
76962;SDS011;65902;51.452;7.198;2023-06-10T03:06:19;13.25;;;11.68;;
76962;SDS011;65902;51.452;7.198;2023-06-10T03:07:20;14.00;;;10.93;;
76962;SDS011;65902;51.452;7.198;2023-06-10T03:08:21;15.63;;;12.23;;
76962;SDS011;65902;51.452;7.198;2023-06-10T03:09:22;14.23;;;11.82;;
76962;SDS011;65902;51.452;7.198;2023-06-10T03:10:22;13.15;;;11.73;;
76962;SDS011;65902;51.452;7.198;2023-06-10T03:11:22;14.07;;;12.32;;
76962;SDS011;65902;51.452;7.198;2023-06-10T03:12:23;16.33;;;12.25;;
76962;SDS011;65902;51.452;7.198;2023-06-10T03:13:23;13.18;;;10.32;;
76962;SDS011;65902;51.452;7.198;2023-06-10T03:14:25;13.88;;;11.27;;
76962;SDS011;65902;51.452;7.198;2023-06-10T03:15:25;15.43;;;12.00;;
76962;SDS011;65902;51.452;7.198;2023-06-10T03:16:26;13.18;;;11.80;;
76962;SDS011;65902;51.452;7.198;2023-06-10T03:17:27;12.35;;;11.05;;
76962;SDS011;65902;51.452;7.198;2023-06-10T03:18:27;12.52;;;10.55;;
76962;SDS011;65902;51.452;7.198;2023-06-10T03:19:28;13.60;;;11.20;;
76962;SDS011;65902;51.452;7.198;2023-06-10T03:20:28;15.43;;;11.20;;
76962;SDS011;65902;51.452;7.198;2023-06-10T03:21:30;13.38;;;11.50;;
76962;SDS011;65902;51.452;7.198;2023-06-10T03:22:30;12.18;;;10.77;;
76962;SDS011;65902;51.452;7.198;2023-06-10T03:23:31;13.73;;;11.27;;
76962;SDS011;65902;51.452;7.198;2023-06-10T03:24:33;13.45;;;11.65;;
76962;SDS011;65902;51.452;7.198;2023-06-10T03:25:33;13.07;;;11.48;;
76962;SDS011;65902;51.452;7.198;2023-06-10T03:26:34;17.05;;;11.52;;
76962;SDS011;65902;51.452;7.198;2023-06-10T03:27:36;13.27;;;11.40;;
76962;SDS011;65902;51.452;7.198;2023-06-10T03:28:37;15.55;;;12.55;;
76962;SDS011;65902;51.452;7.198;2023-06-10T03:29:38;12.93;;;11.60;;
76962;SDS011;65902;51.452;7.198;2023-06-10T03:30:39;14.60;;;11.88;;
76962;SDS011;65902;51.452;7.198;2023-06-10T03:31:39;13.05;;;11.52;;
76962;SDS011;65902;51.452;7.198;2023-06-10T03:32:40;13.82;;;12.18;;
76962;SDS011;65902;51.452;7.198;2023-06-10T03:33:41;13.40;;;12.05;;
76962;SDS011;65902;51.452;7.198;2023-06-10T03:34:42;14.20;;;12.70;;
76962;SDS011;65902;51.452;7.198;2023-06-10T03:35:45;14.50;;;12.98;;
76962;SDS011;65902;51.452;7.198;2023-06-10T03:36:45;15.00;;;11.98;;
76962;SDS011;65902;51.452;7.198;2023-06-10T03:37:45;17.50;;;11.57;;
76962;SDS011;65902;51.452;7.198;2023-06-10T03:38:46;15.20;;;13.00;;
76962;SDS011;65902;51.452;7.198;2023-06-10T03:39:46;17.83;;;12.43;;
76962;SDS011;65902;51.452;7.198;2023-06-10T03:40:47;14.10;;;11.95;;
76962;SDS011;65902;51.452;7.198;2023-06-10T03:41:47;14.75;;;12.50;;
76962;SDS011;65902;51.452;7.198;2023-06-10T03:42:48;15.32;;;13.73;;
76962;SDS011;65902;51.452;7.198;2023-06-10T03:43:48;16.73;;;13.07;;
76962;SDS011;65902;51.452;7.198;2023-06-10T03:44:48;14.88;;;11.90;;
76962;SDS011;65902;51.452;7.198;2023-06-10T03:45:49;14.93;;;12.60;;
76962;SDS011;65902;51.452;7.198;2023-06-10T03:46:50;14.88;;;11.93;;
76962;SDS011;65902;51.452;7.198;2023-06-10T03:47:51;13.57;;;11.95;;
76962;SDS011;65902;51.452;7.198;2023-06-10T03:48:51;13.88;;;11.93;;
76962;SDS011;65902;51.452;7.198;2023-06-10T03:49:52;16.58;;;12.70;;
76962;SDS011;65902;51.452;7.198;2023-06-10T03:50:53;13.65;;;12.07;;
76962;SDS011;65902;51.452;7.198;2023-06-10T03:51:54;16.23;;;13.32;;
76962;SDS011;65902;51.452;7.198;2023-06-10T03:52:55;15.90;;;12.20;;
76962;SDS011;65902;51.452;7.198;2023-06-10T03:53:56;14.20;;;12.70;;
76962;SDS011;65902;51.452;7.198;2023-06-10T03:54:57;14.23;;;12.43;;
76962;SDS011;65902;51.452;7.198;2023-06-10T03:55:58;14.52;;;12.40;;
76962;SDS011;65902;51.452;7.198;2023-06-10T03:57:00;14.25;;;12.65;;
76962;SDS011;65902;51.452;7.198;2023-06-10T03:58:01;14.00;;;12.30;;
76962;SDS011;65902;51.452;7.198;2023-06-10T03:59:02;16.70;;;13.35;;
76962;SDS011;65902;51.452;7.198;2023-06-10T04:00:02;13.55;;;11.73;;
76962;SDS011;65902;51.452;7.198;2023-06-10T04:01:09;15.35;;;12.88;;
76962;SDS011;65902;51.452;7.198;2023-06-10T04:02:10;18.08;;;13.63;;
76962;SDS011;65902;51.452;7.198;2023-06-10T04:03:11;17.77;;;13.32;;
76962;SDS011;65902;51.452;7.198;2023-06-10T04:04:14;14.45;;;12.15;;
76962;SDS011;65902;51.452;7.198;2023-06-10T04:05:17;15.35;;;12.10;;
76962;SDS011;65902;51.452;7.198;2023-06-10T04:06:18;14.93;;;12.20;;
76962;SDS011;65902;51.452;7.198;2023-06-10T04:07:18;16.83;;;13.05;;
76962;SDS011;65902;51.452;7.198;2023-06-10T04:08:20;14.60;;;12.27;;
76962;SDS011;65902;51.452;7.198;2023-06-10T04:09:20;14.85;;;13.05;;
76962;SDS011;65902;51.452;7.198;2023-06-10T04:10:21;14.95;;;12.60;;
76962;SDS011;65902;51.452;7.198;2023-06-10T04:11:25;14.30;;;12.60;;
76962;SDS011;65902;51.452;7.198;2023-06-10T04:12:26;18.40;;;14.02;;
76962;SDS011;65902;51.452;7.198;2023-06-10T04:13:26;15.05;;;12.25;;
76962;SDS011;65902;51.452;7.198;2023-06-10T04:14:27;14.80;;;13.13;;
76962;SDS011;65902;51.452;7.198;2023-06-10T04:15:27;19.85;;;14.07;;
76962;SDS011;65902;51.452;7.198;2023-06-10T04:16:28;15.30;;;13.48;;
76962;SDS011;65902;51.452;7.198;2023-06-10T04:17:29;15.13;;;13.07;;
76962;SDS011;65902;51.452;7.198;2023-06-10T04:18:30;18.52;;;13.48;;
76962;SDS011;65902;51.452;7.198;2023-06-10T04:19:32;16.27;;;13.23;;
76962;SDS011;65902;51.452;7.198;2023-06-10T04:20:32;15.45;;;12.60;;
76962;SDS011;65902;51.452;7.198;2023-06-10T04:21:35;17.38;;;14.00;;
76962;SDS011;65902;51.452;7.198;2023-06-10T04:22:36;16.00;;;13.60;;
76962;SDS011;65902;51.452;7.198;2023-06-10T04:23:36;15.55;;;13.95;;
76962;SDS011;65902;51.452;7.198;2023-06-10T04:24:37;14.68;;;12.15;;
76962;SDS011;65902;51.452;7.198;2023-06-10T04:25:38;14.10;;;12.45;;
76962;SDS011;65902;51.452;7.198;2023-06-10T04:26:39;14.45;;;12.57;;
76962;SDS011;65902;51.452;7.198;2023-06-10T04:27:40;15.50;;;13.40;;
76962;SDS011;65902;51.452;7.198;2023-06-10T04:28:42;16.27;;;13.73;;
76962;SDS011;65902;51.452;7.198;2023-06-10T04:29:43;19.52;;;14.50;;
76962;SDS011;65902;51.452;7.198;2023-06-10T04:30:44;17.70;;;13.73;;
76962;SDS011;65902;51.452;7.198;2023-06-10T04:31:46;18.13;;;13.85;;
76962;SDS011;65902;51.452;7.198;2023-06-10T04:32:47;16.80;;;12.65;;
76962;SDS011;65902;51.452;7.198;2023-06-10T04:33:47;15.57;;;13.50;;
76962;SDS011;65902;51.452;7.198;2023-06-10T04:34:48;18.10;;;13.80;;
76962;SDS011;65902;51.452;7.198;2023-06-10T04:35:49;15.60;;;13.07;;
76962;SDS011;65902;51.452;7.198;2023-06-10T04:36:49;17.52;;;13.27;;
76962;SDS011;65902;51.452;7.198;2023-06-10T04:37:51;16.77;;;14.60;;
76962;SDS011;65902;51.452;7.198;2023-06-10T04:38:51;18.02;;;13.38;;
76962;SDS011;65902;51.452;7.198;2023-06-10T04:39:52;17.60;;;13.35;;
76962;SDS011;65902;51.452;7.198;2023-06-10T04:40:53;15.90;;;13.05;;
76962;SDS011;65902;51.452;7.198;2023-06-10T04:41:54;15.60;;;12.98;;
76962;SDS011;65902;51.452;7.198;2023-06-10T04:42:55;15.68;;;12.95;;
76962;SDS011;65902;51.452;7.198;2023-06-10T04:43:55;15.65;;;12.68;;
76962;SDS011;65902;51.452;7.198;2023-06-10T04:44:55;18.15;;;13.20;;
76962;SDS011;65902;51.452;7.198;2023-06-10T04:45:57;15.57;;;11.82;;
76962;SDS011;65902;51.452;7.198;2023-06-10T04:46:58;15.20;;;12.63;;
76962;SDS011;65902;51.452;7.198;2023-06-10T04:47:59;15.25;;;11.95;;
76962;SDS011;65902;51.452;7.198;2023-06-10T04:49:00;14.77;;;11.85;;
76962;SDS011;65902;51.452;7.198;2023-06-10T04:50:01;17.65;;;11.32;;
76962;SDS011;65902;51.452;7.198;2023-06-10T04:51:02;15.63;;;13.00;;
76962;SDS011;65902;51.452;7.198;2023-06-10T04:52:03;18.92;;;11.70;;
76962;SDS011;65902;51.452;7.198;2023-06-10T04:53:05;14.73;;;12.23;;
76962;SDS011;65902;51.452;7.198;2023-06-10T04:54:06;15.02;;;11.60;;
76962;SDS011;65902;51.452;7.198;2023-06-10T04:55:07;13.65;;;10.90;;
76962;SDS011;65902;51.452;7.198;2023-06-10T04:56:08;14.15;;;12.05;;
76962;SDS011;65902;51.452;7.198;2023-06-10T04:57:09;14.25;;;11.35;;
76962;SDS011;65902;51.452;7.198;2023-06-10T04:58:12;14.32;;;11.15;;
76962;SDS011;65902;51.452;7.198;2023-06-10T04:59:12;16.30;;;11.00;;
76962;SDS011;65902;51.452;7.198;2023-06-10T05:00:14;16.88;;;11.10;;
76962;SDS011;65902;51.452;7.198;2023-06-10T05:01:15;17.55;;;12.75;;
76962;SDS011;65902;51.452;7.198;2023-06-10T05:02:15;15.43;;;11.90;;
76962;SDS011;65902;51.452;7.198;2023-06-10T05:03:17;14.40;;;11.13;;
76962;SDS011;65902;51.452;7.198;2023-06-10T05:04:18;14.07;;;12.10;;
76962;SDS011;65902;51.452;7.198;2023-06-10T05:05:19;12.52;;;11.13;;
76962;SDS011;65902;51.452;7.198;2023-06-10T05:06:20;15.82;;;11.35;;
76962;SDS011;65902;51.452;7.198;2023-06-10T05:07:20;14.07;;;11.18;;
76962;SDS011;65902;51.452;7.198;2023-06-10T05:08:21;15.35;;;12.07;;
76962;SDS011;65902;51.452;7.198;2023-06-10T05:09:22;19.17;;;12.48;;
76962;SDS011;65902;51.452;7.198;2023-06-10T05:10:23;15.50;;;12.02;;
76962;SDS011;65902;51.452;7.198;2023-06-10T05:11:23;13.98;;;11.13;;
76962;SDS011;65902;51.452;7.198;2023-06-10T05:12:23;11.82;;;10.32;;
76962;SDS011;65902;51.452;7.198;2023-06-10T05:13:24;13.98;;;11.55;;
76962;SDS011;65902;51.452;7.198;2023-06-10T05:14:25;14.40;;;11.23;;
76962;SDS011;65902;51.452;7.198;2023-06-10T05:15:25;11.85;;;10.20;;
76962;SDS011;65902;51.452;7.198;2023-06-10T05:16:26;10.90;;;9.50;;
76962;SDS011;65902;51.452;7.198;2023-06-10T05:17:27;11.63;;;10.13;;
76962;SDS011;65902;51.452;7.198;2023-06-10T05:18:31;12.20;;;10.65;;
76962;SDS011;65902;51.452;7.198;2023-06-10T05:20:32;12.25;;;9.23;;
76962;SDS011;65902;51.452;7.198;2023-06-10T05:21:33;12.57;;;9.52;;
76962;SDS011;65902;51.452;7.198;2023-06-10T05:22:33;14.75;;;10.32;;
76962;SDS011;65902;51.452;7.198;2023-06-10T05:23:35;13.60;;;10.02;;
76962;SDS011;65902;51.452;7.198;2023-06-10T05:24:35;14.38;;;10.10;;
76962;SDS011;65902;51.452;7.198;2023-06-10T05:25:36;15.82;;;10.02;;
76962;SDS011;65902;51.452;7.198;2023-06-10T05:26:37;12.48;;;10.75;;
76962;SDS011;65902;51.452;7.198;2023-06-10T05:27:38;14.10;;;10.15;;
76962;SDS011;65902;51.452;7.198;2023-06-10T05:28:40;12.20;;;9.65;;
76962;SDS011;65902;51.452;7.198;2023-06-10T05:29:41;14.02;;;9.73;;
76962;SDS011;65902;51.452;7.198;2023-06-10T05:30:42;13.95;;;9.77;;
76962;SDS011;65902;51.452;7.198;2023-06-10T05:31:42;13.27;;;9.38;;
76962;SDS011;65902;51.452;7.198;2023-06-10T05:32:43;13.73;;;9.60;;
76962;SDS011;65902;51.452;7.198;2023-06-10T05:33:43;12.18;;;8.80;;
76962;SDS011;65902;51.452;7.198;2023-06-10T05:34:44;10.75;;;8.57;;
76962;SDS011;65902;51.452;7.198;2023-06-10T05:35:45;10.63;;;8.95;;
76962;SDS011;65902;51.452;7.198;2023-06-10T05:36:45;10.43;;;8.77;;
76962;SDS011;65902;51.452;7.198;2023-06-10T05:37:46;10.07;;;8.88;;
76962;SDS011;65902;51.452;7.198;2023-06-10T05:38:46;11.70;;;9.18;;
76962;SDS011;65902;51.452;7.198;2023-06-10T05:39:47;10.90;;;8.45;;
76962;SDS011;65902;51.452;7.198;2023-06-10T05:40:48;12.55;;;9.27;;
76962;SDS011;65902;51.452;7.198;2023-06-10T05:41:48;11.65;;;8.85;;
76962;SDS011;65902;51.452;7.198;2023-06-10T05:42:49;13.25;;;8.15;;
76962;SDS011;65902;51.452;7.198;2023-06-10T05:43:49;12.27;;;8.77;;
76962;SDS011;65902;51.452;7.198;2023-06-10T05:44:49;11.98;;;8.15;;
76962;SDS011;65902;51.452;7.198;2023-06-10T05:45:50;12.30;;;8.20;;
76962;SDS011;65902;51.452;7.198;2023-06-10T05:46:50;12.23;;;8.95;;
76962;SDS011;65902;51.452;7.198;2023-06-10T05:47:51;12.20;;;8.43;;
76962;SDS011;65902;51.452;7.198;2023-06-10T05:48:52;12.57;;;8.23;;
76962;SDS011;65902;51.452;7.198;2023-06-10T05:49:52;12.38;;;8.52;;
76962;SDS011;65902;51.452;7.198;2023-06-10T05:50:53;10.07;;;8.13;;
76962;SDS011;65902;51.452;7.198;2023-06-10T05:51:54;11.48;;;8.15;;
76962;SDS011;65902;51.452;7.198;2023-06-10T05:52:57;14.25;;;9.05;;
76962;SDS011;65902;51.452;7.198;2023-06-10T05:55:08;10.32;;;8.15;;
76962;SDS011;65902;51.452;7.198;2023-06-10T05:56:09;11.82;;;8.50;;
76962;SDS011;65902;51.452;7.198;2023-06-10T05:57:11;12.02;;;8.18;;
76962;SDS011;65902;51.452;7.198;2023-06-10T05:58:11;12.18;;;8.25;;
76962;SDS011;65902;51.452;7.198;2023-06-10T05:59:12;12.15;;;8.50;;
76962;SDS011;65902;51.452;7.198;2023-06-10T06:00:13;12.25;;;8.55;;
76962;SDS011;65902;51.452;7.198;2023-06-10T06:01:14;11.88;;;8.50;;
76962;SDS011;65902;51.452;7.198;2023-06-10T06:02:14;10.18;;;8.43;;
76962;SDS011;65902;51.452;7.198;2023-06-10T06:03:15;10.40;;;9.07;;
76962;SDS011;65902;51.452;7.198;2023-06-10T06:04:16;9.82;;;7.63;;
76962;SDS011;65902;51.452;7.198;2023-06-10T06:05:16;10.23;;;8.32;;
76962;SDS011;65902;51.452;7.198;2023-06-10T06:06:17;10.70;;;7.32;;
76962;SDS011;65902;51.452;7.198;2023-06-10T06:07:20;10.68;;;8.75;;
76962;SDS011;65902;51.452;7.198;2023-06-10T06:08:21;10.52;;;7.53;;